| time (UTC) | temp F | wind direction | speed MPH | gust MPH | rain 1hr in | rain 24hr in | rain mn in | humidity % | barometer mb |
| 20260504035728 | 60 | 191 | 3.0 | 10.0 | 0.00 | 0.09 | 0.09 | 63 | 1004.7 |
| 20260504035225 | 60 | 169 | 3.0 | 9.0 | 0.00 | 0.09 | 0.09 | 63 | 1004.6 |
| 20260504034723 | 60 | 215 | 4.0 | 12.0 | 0.00 | 0.09 | 0.09 | 62 | 1004.8 |
| 20260504034220 | 60 | 149 | 4.0 | 9.0 | 0.00 | 0.09 | 0.09 | 63 | 1004.7 |
| 20260504033717 | 60 | 175 | 7.0 | 11.0 | 0.00 | 0.09 | 0.09 | 62 | 1004.9 |
| 20260504033215 | 60 | 159 | 5.0 | 7.0 | 0.00 | 0.09 | 0.09 | 62 | 1004.9 |
| 20260504032711 | 60 | 206 | 4.0 | 9.0 | 0.00 | 0.09 | 0.09 | 61 | 1004.9 |
| 20260504032209 | 60 | 180 | 2.0 | 10.0 | 0.00 | 0.09 | 0.09 | 61 | 1005.1 |
| 20260504031705 | 60 | 181 | 6.0 | 10.0 | 0.00 | 0.09 | 0.09 | 61 | 1005.2 |
| 20260504031202 | 60 | 161 | 5.0 | 9.0 | 0.00 | 0.09 | 0.09 | 61 | 1005.0 |
| 20260504030658 | 60 | 178 | 5.0 | 8.0 | 0.00 | 0.09 | 0.09 | 61 | 1005.1 |
| 20260504030156 | 60 | 98 | 1.0 | 4.0 | 0.00 | 0.09 | 0.09 | 61 | 1005.2 |
| 20260504025652 | 60 | 162 | 4.0 | 6.0 | 0.00 | 0.09 | 0.09 | 60 | 1005.2 |
| 20260504025149 | 61 | 174 | 4.0 | 6.0 | 0.00 | 0.09 | 0.09 | 60 | 1005.1 |
| 20260504024646 | 61 | 211 | 7.0 | 8.0 | 0.00 | 0.09 | 0.09 | 59 | 1004.9 |
| 20260504024142 | 61 | 212 | 5.0 | 6.0 | 0.00 | 0.09 | 0.09 | 59 | 1005.1 |
| 20260504023639 | 61 | 201 | 6.0 | 7.0 | 0.00 | 0.09 | 0.09 | 59 | 1005.0 |
| 20260504023130 | 61 | 199 | 4.0 | 9.0 | 0.00 | 0.09 | 0.09 | 59 | 1005.4 |
| 20260504022626 | 61 | 161 | 2.0 | 7.0 | 0.00 | 0.09 | 0.09 | 59 | 1005.4 |
| 20260504022121 | 61 | 200 | 5.0 | 8.0 | 0.00 | 0.09 | 0.09 | 58 | 1005.1 |
| 20260504021620 | 61 | 202 | 5.0 | 7.0 | 0.00 | 0.09 | 0.09 | 58 | 1005.1 |
| 20260504021116 | 62 | 188 | 4.0 | 11.0 | 0.00 | 0.09 | 0.09 | 58 | 1005.0 |
| 20260504020614 | 62 | 217 | 6.0 | 7.0 | 0.00 | 0.09 | 0.09 | 58 | 1004.8 |
| 20260504020109 | 62 | 187 | 4.0 | 9.0 | 0.00 | 0.09 | 0.09 | 58 | 1004.9 |
| 20260504015606 | 62 | 209 | 4.0 | 6.0 | 0.00 | 0.09 | 0.09 | 58 | 1004.9 |
| 20260504015102 | 62 | 159 | 3.0 | 6.0 | 0.00 | 0.09 | 0.09 | 58 | 1004.8 |
| 20260504014558 | 62 | 202 | 5.0 | 6.0 | 0.00 | 0.09 | 0.09 | 58 | 1004.9 |
| 20260504014056 | 62 | 214 | 2.0 | 6.0 | 0.00 | 0.09 | 0.09 | 58 | 1004.8 |
| 20260504013553 | 62 | 152 | 2.0 | 6.0 | 0.00 | 0.09 | 0.09 | 58 | 1004.8 |
| 20260504013050 | 62 | 185 | 2.0 | 7.0 | 0.00 | 0.09 | 0.09 | 57 | 1004.9 |
| 20260504012547 | 63 | 196 | 3.0 | 6.0 | 0.00 | 0.09 | 0.09 | 57 | 1004.4 |
| 20260504012045 | 63 | 175 | 3.0 | 6.0 | 0.00 | 0.09 | 0.09 | 56 | 1004.9 |
| 20260504011542 | 63 | 218 | 3.0 | 6.0 | 0.00 | 0.09 | 0.09 | 57 | 1004.7 |
| 20260504011038 | 63 | 170 | 5.0 | 6.0 | 0.00 | 0.09 | 0.09 | 56 | 1004.6 |
| 20260504010533 | 64 | 169 | 4.0 | 11.0 | 0.00 | 0.09 | 0.09 | 55 | 1004.6 |
| 20260504010030 | 64 | 201 | 4.0 | 9.0 | 0.00 | 0.09 | 0.09 | 55 | 1004.7 |
| 20260504005527 | 64 | 163 | 2.0 | 10.0 | 0.00 | 0.09 | 0.09 | 54 | 1004.6 |
| 20260504005024 | 64 | 186 | 3.0 | 10.0 | 0.00 | 0.09 | 0.09 | 54 | 1004.6 |
| 20260504004522 | 64 | 194 | 7.0 | 11.0 | 0.00 | 0.09 | 0.09 | 53 | 1004.6 |
| 20260504004019 | 65 | 204 | 3.0 | 9.0 | 0.00 | 0.09 | 0.09 | 53 | 1004.6 |
| 20260504003515 | 65 | 173 | 2.0 | 9.0 | 0.00 | 0.09 | 0.09 | 52 | 1004.5 |
| 20260504003012 | 65 | 178 | 3.0 | 8.0 | 0.00 | 0.09 | 0.09 | 52 | 1004.5 |
| 20260504002509 | 66 | 223 | 7.0 | 9.0 | 0.00 | 0.09 | 0.09 | 51 | 1004.5 |
| 20260504002006 | 66 | 193 | 3.0 | 10.0 | 0.00 | 0.09 | 0.09 | 51 | 1004.4 |
| 20260504001503 | 66 | 201 | 4.0 | 13.0 | 0.00 | 0.09 | 0.09 | 51 | 1004.6 |
| 20260504000959 | 66 | 190 | 5.0 | 8.0 | 0.00 | 0.09 | 0.09 | 50 | 1004.7 |
| 20260504000457 | 67 | 198 | 4.0 | 9.0 | 0.00 | 0.09 | 0.09 | 49 | 1004.5 |
| 20260503235954 | 67 | 176 | 4.0 | 8.0 | 0.00 | 0.09 | 0.09 | 48 | 1004.4 |
| 20260503235452 | 67 | 243 | 3.0 | 11.0 | 0.00 | 0.09 | 0.09 | 48 | 1004.6 |
| 20260503234949 | 68 | 219 | 5.0 | 11.0 | 0.00 | 0.09 | 0.09 | 47 | 1004.3 |
| 20260503234446 | 68 | 219 | 12.0 | 13.0 | 0.00 | 0.09 | 0.09 | 46 | 1004.6 |
| 20260503233945 | 68 | 202 | 6.0 | 17.0 | 0.00 | 0.09 | 0.09 | 46 | 1004.6 |
| 20260503233440 | 68 | 175 | 6.0 | 7.0 | 0.00 | 0.09 | 0.09 | 47 | 1004.5 |
| 20260503232937 | 68 | 219 | 11.0 | 14.0 | 0.00 | 0.09 | 0.09 | 45 | 1004.7 |
| 20260503232434 | 68 | 214 | 6.0 | 13.0 | 0.00 | 0.09 | 0.09 | 46 | 1004.7 |
| 20260503231932 | 68 | 204 | 5.0 | 15.0 | 0.00 | 0.09 | 0.09 | 46 | 1004.5 |
| 20260503231429 | 68 | 144 | 2.0 | 10.0 | 0.00 | 0.09 | 0.09 | 46 | 1004.6 |
| 20260503230926 | 68 | 2 | 2.0 | 10.0 | 0.00 | 0.09 | 0.09 | 46 | 1004.8 |
| 20260503230422 | 69 | 191 | 9.0 | 13.0 | 0.00 | 0.09 | 0.09 | 44 | 1004.8 |
| 20260503225920 | 69 | 181 | 5.0 | 17.0 | 0.00 | 0.09 | 0.09 | 44 | 1004.7 |
| 20260503225417 | 69 | 193 | 9.0 | 12.0 | 0.00 | 0.09 | 0.09 | 44 | 1004.8 |
| 20260503224912 | 69 | 197 | 3.0 | 19.0 | 0.00 | 0.09 | 0.09 | 45 | 1004.7 |
| 20260503224409 | 69 | 201 | 8.0 | 19.0 | 0.00 | 0.09 | 0.09 | 44 | 1004.7 |
| 20260503223907 | 69 | 186 | 12.0 | 14.0 | 0.00 | 0.09 | 0.09 | 43 | 1005.1 |
| 20260503223405 | 70 | 197 | 4.0 | 14.0 | 0.00 | 0.09 | 0.09 | 44 | 1004.9 |
| 20260503222900 | 70 | 226 | 4.0 | 9.0 | 0.00 | 0.09 | 0.09 | 45 | 1005.0 |
| 20260503222359 | 68 | 217 | 9.0 | 23.0 | 0.00 | 0.09 | 0.09 | 45 | 1005.1 |
| 20260503221856 | 70 | 205 | 9.0 | 17.0 | 0.00 | 0.09 | 0.09 | 44 | 1005.0 |
| 20260503221355 | 70 | 214 | 9.0 | 21.0 | 0.00 | 0.09 | 0.09 | 43 | 1005.0 |
| 20260503220850 | 69 | 223 | 6.0 | 21.0 | 0.00 | 0.09 | 0.09 | 46 | 1005.1 |
| 20260503220347 | 68 | 179 | 10.0 | 19.0 | 0.00 | 0.09 | 0.09 | 44 | 1005.1 |
| 20260503215844 | 68 | 212 | 12.0 | 13.0 | 0.00 | 0.09 | 0.09 | 44 | 1005.2 |
| 20260503215342 | 67 | 205 | 6.0 | 12.0 | 0.00 | 0.09 | 0.09 | 45 | 1005.1 |
| 20260503214839 | 67 | 180 | 3.0 | 10.0 | 0.00 | 0.09 | 0.09 | 46 | 1005.4 |
| 20260503214336 | 68 | 220 | 6.0 | 17.0 | 0.00 | 0.09 | 0.09 | 44 | 1005.2 |
| 20260503213833 | 69 | 207 | 7.0 | 17.0 | 0.00 | 0.09 | 0.09 | 43 | 1005.1 |
| 20260503213331 | 69 | 231 | 13.0 | 17.0 | 0.00 | 0.09 | 0.09 | 41 | 1005.7 |
| 20260503212828 | 69 | 152 | 10.0 | 13.0 | 0.00 | 0.09 | 0.09 | 43 | 1005.5 |
| 20260503212326 | 67 | 209 | 3.0 | 15.0 | 0.00 | 0.09 | 0.09 | 43 | 1005.7 |
| 20260503211823 | 67 | 218 | 1.0 | 21.0 | 0.00 | 0.09 | 0.09 | 45 | 1005.7 |
| 20260503211319 | 69 | 203 | 8.0 | 14.0 | 0.00 | 0.09 | 0.09 | 41 | 1005.7 |
| 20260503210820 | 68 | 200 | 6.0 | 23.0 | 0.00 | 0.09 | 0.09 | 43 | 1006.0 |
| 20260503210317 | 68 | 194 | 9.0 | 10.0 | 0.00 | 0.09 | 0.09 | 43 | 1006.1 |
| 20260503205812 | 67 | 212 | 5.0 | 20.0 | 0.00 | 0.09 | 0.09 | 43 | 1006.0 |
| 20260503205309 | 67 | 208 | 5.0 | 8.0 | 0.00 | 0.09 | 0.09 | 45 | 1006.4 |
| 20260503204805 | 66 | 207 | 4.0 | 17.0 | 0.00 | 0.09 | 0.09 | 45 | 1006.4 |
| 20260503204303 | 66 | 219 | 16.0 | 18.0 | 0.00 | 0.09 | 0.09 | 44 | 1006.3 |
| 20260503203800 | 66 | 218 | 7.0 | 19.0 | 0.00 | 0.09 | 0.09 | 45 | 1006.5 |
| 20260503203257 | 67 | 183 | 6.0 | 18.0 | 0.00 | 0.09 | 0.09 | 44 | 1006.5 |
| 20260503202754 | 66 | 215 | 9.0 | 18.0 | 0.00 | 0.09 | 0.09 | 45 | 1006.8 |
| 20260503202252 | 67 | 190 | 7.0 | 17.0 | 0.00 | 0.09 | 0.09 | 45 | 1006.9 |
| 20260503201750 | 67 | 191 | 6.0 | 16.0 | 0.00 | 0.09 | 0.09 | 44 | 1006.9 |
| 20260503201247 | 67 | 228 | 11.0 | 18.0 | 0.00 | 0.09 | 0.09 | 42 | 1007.0 |
| 20260503200744 | 67 | 229 | 9.0 | 26.0 | 0.00 | 0.09 | 0.09 | 42 | 1007.1 |
| 20260503200240 | 67 | 171 | 15.0 | 18.0 | 0.00 | 0.09 | 0.09 | 43 | 1007.3 |
| 20260503195737 | 65 | 235 | 4.0 | 21.0 | 0.00 | 0.09 | 0.09 | 42 | 1007.1 |
| 20260503195234 | 66 | 178 | 8.0 | 18.0 | 0.00 | 0.09 | 0.09 | 44 | 1007.4 |
| 20260503194732 | 66 | 176 | 9.0 | 15.0 | 0.00 | 0.09 | 0.09 | 43 | 1007.2 |
| 20260503194227 | 64 | 189 | 11.0 | 24.0 | 0.00 | 0.09 | 0.09 | 42 | 1007.5 |
| 20260503193723 | 65 | 197 | 8.0 | 26.0 | 0.00 | 0.09 | 0.09 | 43 | 1007.5 |
| 20260503193219 | 67 | 192 | 13.0 | 22.0 | 0.00 | 0.09 | 0.09 | 41 | 1007.4 |
| 20260503192715 | 66 | 202 | 9.0 | 19.0 | 0.00 | 0.09 | 0.09 | 43 | 1007.5 |
| 20260503192211 | 66 | 228 | 11.0 | 23.0 | 0.00 | 0.09 | 0.09 | 43 | 1007.7 |
| 20260503191708 | 66 | 193 | 6.0 | 21.0 | 0.00 | 0.09 | 0.09 | 45 | 1007.9 |
| 20260503191205 | 65 | 181 | 10.0 | 17.0 | 0.00 | 0.09 | 0.09 | 48 | 1007.9 |
| 20260503190702 | 64 | 199 | 10.0 | 23.0 | 0.00 | 0.09 | 0.09 | 49 | 1007.7 |
| 20260503190158 | 64 | 172 | 5.0 | 20.0 | 0.00 | 0.09 | 0.09 | 51 | 1007.8 |
| 20260503185655 | 63 | 143 | 5.0 | 13.0 | 0.00 | 0.09 | 0.09 | 56 | 1007.9 |
| 20260503185150 | 63 | 195 | 6.0 | 12.0 | 0.00 | 0.09 | 0.09 | 54 | 1007.9 |
| 20260503184645 | 62 | 185 | 9.0 | 15.0 | 0.00 | 0.09 | 0.09 | 55 | 1008.0 |
| 20260503184142 | 62 | 124 | 9.0 | 13.0 | 0.00 | 0.09 | 0.09 | 57 | 1008.2 |
| 20260503183638 | 62 | 202 | 4.0 | 26.0 | 0.00 | 0.09 | 0.09 | 60 | 1008.0 |
| 20260503183136 | 61 | 209 | 3.0 | 9.0 | 0.00 | 0.09 | 0.09 | 63 | 1008.4 |
| 20260503182634 | 60 | 147 | 5.0 | 11.0 | 0.00 | 0.09 | 0.09 | 65 | 1008.4 |
| 20260503182132 | 60 | 199 | 6.0 | 19.0 | 0.00 | 0.09 | 0.09 | 64 | 1008.6 |
| 20260503181629 | 59 | 240 | 6.0 | 11.0 | 0.00 | 0.09 | 0.09 | 65 | 1008.8 |
| 20260503181126 | 59 | 217 | 7.0 | 10.0 | 0.00 | 0.09 | 0.09 | 66 | 1008.9 |
| 20260503180623 | 59 | 105 | 3.0 | 11.0 | 0.00 | 0.09 | 0.09 | 68 | 1009.0 |
| 20260503180121 | 58 | 263 | 4.0 | 13.0 | 0.00 | 0.09 | 0.09 | 67 | 1009.3 |
| 20260503175617 | 58 | 116 | 6.0 | 15.0 | 0.00 | 0.09 | 0.09 | 69 | 1009.4 |
| 20260503175114 | 56 | 98 | 2.0 | 9.0 | 0.00 | 0.09 | 0.09 | 74 | 1009.4 |
| 20260503174611 | 56 | 256 | 4.0 | 8.0 | 0.00 | 0.09 | 0.09 | 76 | 1009.8 |
| 20260503174108 | 54 | 144 | 5.0 | 11.0 | 0.00 | 0.09 | 0.09 | 80 | 1009.7 |
| 20260503173603 | 53 | 160 | 4.0 | 14.0 | 0.00 | 0.09 | 0.09 | 81 | 1009.9 |
| 20260503173100 | 52 | 121 | 4.0 | 8.0 | 0.00 | 0.09 | 0.09 | 83 | 1010.0 |
| 20260503172557 | 50 | 81 | 5.0 | 8.0 | 0.00 | 0.09 | 0.09 | 85 | 1010.1 |
| 20260503172054 | 49 | 94 | 8.0 | 11.0 | 0.00 | 0.09 | 0.09 | 86 | 1010.4 |
| 20260503171550 | 49 | 135 | 2.0 | 8.0 | 0.00 | 0.09 | 0.09 | 87 | 1010.5 |
| 20260503171048 | 48 | 300 | 4.0 | 6.0 | 0.00 | 0.09 | 0.09 | 89 | 1010.9 |
| 20260503170544 | 48 | 120 | 4.0 | 9.0 | 0.00 | 0.09 | 0.09 | 89 | 1011.4 |
| 20260503150925 | 47 | 142 | 0.0 | 6.0 | 0.24 | 0.05 | 0.05 | 89 | 1013.4 |
| 20260503150421 | 47 | 84 | 3.0 | 10.0 | 0.21 | 0.04 | 0.04 | 86 | 1013.7 |
| 20260503131314 | 50 | 193 | 7.0 | 14.0 | 0.00 | 0.00 | 0.00 | 63 | 1013.2 |
| 20260503130812 | 50 | 195 | 7.0 | 8.0 | 0.00 | 0.00 | 0.00 | 64 | 1013.1 |
| 20260503130309 | 49 | 166 | 6.0 | 13.0 | 0.00 | 0.00 | 0.00 | 64 | 1013.1 |
| 20260503110657 | 46 | 175 | 4.0 | 16.0 | 0.00 | 0.00 | 0.00 | 64 | 1012.8 |
| 20260503110154 | 46 | 184 | 6.0 | 10.0 | 0.00 | 0.00 | 0.00 | 64 | 1013.0 |
| 20260503100120 | 47 | 174 | 6.0 | 11.0 | 0.00 | 0.00 | 0.00 | 62 | 1013.4 |
| 20260503081503 | 45 | 180 | 5.0 | 6.0 | 0.00 | 0.00 | 0.00 | 63 | 1013.9 |
| 20260503081001 | 45 | 128 | 4.0 | 8.0 | 0.00 | 0.00 | 0.00 | 63 | 1013.7 |
| 20260503080457 | 45 | 174 | 4.0 | 7.0 | 0.00 | 0.00 | 0.00 | 62 | 1013.8 |
| 20260503072934 | 46 | 192 | 2.0 | 4.0 | 0.00 | 0.00 | 0.00 | 60 | 1014.0 |
| 20260503072431 | 46 | 169 | 2.0 | 6.0 | 0.00 | 0.00 | 0.00 | 60 | 1013.8 |
| 20260503071928 | 46 | 158 | 3.0 | 6.0 | 0.00 | 0.00 | 0.00 | 60 | 1014.1 |
| 20260503071425 | 46 | 156 | 3.0 | 7.0 | 0.00 | 0.00 | 0.00 | 59 | 1014.1 |
| 20260503070921 | 46 | 184 | 4.0 | 7.0 | 0.00 | 0.00 | 0.00 | 59 | 1014.1 |
| 20260503070418 | 46 | 181 | 3.0 | 5.0 | 0.00 | 0.00 | 0.00 | 59 | 1014.0 |
| 20260503054832 | 46 | 196 | 2.0 | 5.0 | 0.00 | 0.00 | 0.00 | 58 | 1014.6 |
| 20260503054327 | 46 | 204 | 3.0 | 5.0 | 0.00 | 0.00 | 0.00 | 57 | 1014.7 |
| 20260503053826 | 46 | 204 | 4.0 | 10.0 | 0.00 | 0.00 | 0.00 | 57 | 1014.7 |
| 20260503053324 | 46 | 171 | 0.0 | 7.0 | 0.00 | 0.00 | 0.00 | 56 | 1014.9 |
| 20260503052820 | 47 | 184 | 3.0 | 6.0 | 0.00 | 0.00 | 0.00 | 56 | 1014.9 |
| 20260503052317 | 47 | 178 | 4.0 | 7.0 | 0.00 | 0.00 | 0.00 | 55 | 1015.0 |
| 20260503051813 | 47 | 180 | 2.0 | 5.0 | 0.00 | 0.00 | 0.00 | 55 | 1014.9 |
| 20260503051310 | 47 | 201 | 5.0 | 6.0 | 0.00 | 0.00 | 0.00 | 55 | 1014.8 |
| 20260503050806 | 47 | 172 | 2.0 | 5.0 | 0.00 | 0.00 | 0.00 | 55 | 1014.8 |
| 20260503050303 | 47 | 172 | 3.0 | 8.0 | 0.00 | 0.00 | 0.00 | 54 | 1014.9 |
| 20260503045801 | 47 | 189 | 5.0 | 5.0 | 0.00 | 0.00 | 0.00 | 55 | 1014.9 |
| 20260503045258 | 47 | 160 | 2.0 | 9.0 | 0.00 | 0.00 | 0.00 | 54 | 1015.0 |
| 20260503044753 | 47 | 202 | 5.0 | 5.0 | 0.00 | 0.00 | 0.00 | 54 | 1014.7 |
| 20260503044245 | 47 | 141 | 2.0 | 6.0 | 0.00 | 0.00 | 0.00 | 54 | 1015.1 |
| 20260503043743 | 47 | 124 | 0.0 | 7.0 | 0.00 | 0.00 | 0.00 | 55 | 1014.9 |
| 20260503043240 | 47 | 166 | 4.0 | 8.0 | 0.00 | 0.00 | 0.00 | 54 | 1014.8 |
| 20260503042735 | 47 | 167 | 2.0 | 6.0 | 0.00 | 0.00 | 0.00 | 54 | 1014.9 |
| 20260503042232 | 47 | 147 | 3.0 | 6.0 | 0.00 | 0.00 | 0.00 | 55 | 1015.0 |
| 20260503041728 | 47 | 173 | 6.0 | 6.0 | 0.00 | 0.00 | 0.00 | 55 | 1014.9 |
| 20260503041226 | 46 | 136 | 1.0 | 3.0 | 0.00 | 0.00 | 0.00 | 57 | 1015.0 |
| 20260503040723 | 47 | 138 | 2.0 | 4.0 | 0.00 | 0.00 | 0.00 | 58 | 1015.1 |
| 20260503040220 | 47 | 137 | 1.0 | 4.0 | 0.00 | 0.00 | 0.00 | 56 | 1015.2 |